Johnstown, PA

01:36 PM EST del 05 Marzo 2015 (GMT -0500)
Johnstown-Cambria County | Change Station
CLOSE
Current Station
Aeroporto
Location: Johnstown,
Altitudine: 2283 ft
Stazioni meteo nelle vicinanze

Alt. 2283 ft 40.32 °N, 78.83 °W | Updated 42 minutes ago

Neve
Neve
12 °F
Sembra -4 °F
N
16
Vento Variabile Vento da NO

Oggi
Massima -- | Minima -- °F
--% Possibilità di precip.
Ieri
Massima -- | Minima -- °F
Precip. -- in
6:43 AM 6:11 PM
Luna piena, 100% visible
Pressione 30.22 in
Visibilità 4.0 miglia
Nuvole Nubi sparse 1300 ft
Coperto 5500 ft
Raffreddamento del vento -4 °F
Punto di rugiada 6 °F
Umidità 77%
Piovosità 0.05 in
Spessore del manto nevoso Non disponibile.
Raggi UV 2 fuori da 12
Polline .60 fuori da 12
Qualità dell'aria Non disponibile.
Flu Activity Non disponibile.
METAR KJST 051754Z AUTO 31014KT 4SM -SN SCT013 OVC055 M11/M14 A3011 RMK AO2 SLP232 P0000 60001 T11111144 11094 21111 53014

More Conditions Fewer Conditions

Pressione 30.22 in
Visibilità 4.0 miglia
Nuvole Nubi sparse 1300 ft
Coperto 5500 ft
Raffreddamento del vento -4 °F
Punto di rugiada 6 °F
Umidità 77%
Piovosità 0.05 in
Spessore del manto nevoso Non disponibile.
Raggi UV 2 fuori da 12
Polline .60 fuori da 12
Qualità dell'aria Non disponibile.
Flu Activity Non disponibile.
METAR KJST 051754Z AUTO 31014KT 4SM -SN SCT013 OVC055 M11/M14 A3011 RMK AO2 SLP232 P0000 60001 T11111144 11094 21111 53014

More Conditions Fewer Conditions

10-Day Weather Forecast

Almanac

Astronomia

Mar. 05, 2015 Alba Tramonto
Ora attuale
Crepuscolo civile
Crepuscolo nautico
Crepuscolo astronomico
Luna
Estensione della luce visibile
Lunghezza del giorno
Tomorrow will be .
, % of the Moon is Illuminated

Gli estremi di oggi

State Highs State Lows

Community

WunderPhotos

Upload Photos

1,802,905 foto caricate!

WunderBlogs® & News

Nearby

Qualità dell'aria

  Qualità dell'aria Indice AQ Inquinante
Not available.

Profondità neve

Stazione Profondità Altitudine

Attività sismica

Città  Distanza Mag. Data & Ora
Minimo Magnitudo Mostrato è 2.5.

Temperature delle acque costiere

Località Temperatura

Stazioni meteo nelle vicinanze